Time;durP1;ratioP1;P1;durP2;ratioP2;P2;SDS_P1;SDS_P2;PMS_P1;PMS_P2;Temp;Humidity;BMP_temperature;BMP_pressure;BME280_temperature;BME280_humidity;BME280_pressure;Samples;Min_cycle;Max_cycle;Signal;HPM_P1;HPM_P2
2021/11/12 00:04:04;;;;;;;1999.90;999.90;;;;;;;10.42;77.60;101905.38;15645866;28;20045;-61
2021/11/12 00:19:43;;;;;;;1999.90;999.90;;;;;;;10.46;77.65;101894.44;15533962;28;20052;-57
2021/11/12 00:27:16;;;;;;;1999.90;999.90;;;;;;;10.32;77.45;101902.75;15670834;28;20042;-58
2021/11/12 00:34:57;;;;;;;1999.90;999.90;;;;;;;10.31;78.24;101899.09;15620340;28;20040;-61
2021/11/12 00:42:37;;;;;;;1999.90;999.90;;;;;;;10.20;78.43;101889.19;15684605;28;20048;-62
2021/11/12 00:50:29;;;;;;;1999.90;999.90;;;;;;;10.43;77.18;101886.69;15630746;28;20072;-59
2021/11/12 00:58:02;;;;;;;1999.90;999.90;;;;;;;10.33;78.28;101901.63;15630261;28;20044;-58
2021/11/12 01:05:36;;;;;;;1999.90;999.90;;;;;;;10.44;77.50;101893.91;15642395;28;20043;-58
2021/11/12 01:13:09;;;;;;;1999.90;999.90;;;;;;;10.33;77.77;101882.91;15659637;28;20402;-60
2021/11/12 01:20:43;;;;;;;1999.90;999.90;;;;;;;10.41;77.97;101887.78;15670342;28;20170;-59
2021/11/12 01:28:15;;;;;;;1999.90;999.90;;;;;;;10.35;78.32;101886.22;15706025;22;20037;-59
2021/11/12 01:35:49;;;;;;;1999.90;999.90;;;;;;;10.46;78.30;101884.09;15669375;28;20041;-62
2021/11/12 01:43:24;;;;;;;1999.90;999.90;;;;;;;10.50;78.20;101884.31;15665013;28;20091;-60
2021/11/12 01:51:03;;;;;;;1999.90;999.90;;;;;;;10.47;77.99;101877.38;15658803;28;20537;-57
2021/11/12 01:58:50;;;;;;;1999.90;999.90;;;;;;;10.57;77.92;101862.44;15608280;28;20045;-60
2021/11/12 02:06:25;;;;;;;1999.90;999.90;;;;;;;10.61;77.24;101867.09;15638721;28;20080;-61
2021/11/12 02:13:58;;;;;;;1999.90;999.90;;;;;;;10.55;77.35;101864.72;15607131;28;20068;-60
2021/11/12 02:21:37;;;;;;;1999.90;999.90;;;;;;;10.56;77.57;101858.81;15664446;28;20045;-61
2021/11/12 02:29:12;;;;;;;1999.90;999.90;;;;;;;10.55;78.04;101865.53;15670107;28;20047;-59
2021/11/12 02:36:46;;;;;;;1999.90;999.90;;;;;;;10.65;77.45;101848.59;15645922;28;20545;-60
2021/11/12 02:44:19;;;;;;;1999.90;999.90;;;;;;;10.57;77.16;101851.25;15651686;28;20414;-59
2021/11/12 02:51:54;;;;;;;1999.90;999.90;;;;;;;10.51;77.44;101858.06;15657273;28;20106;-60
2021/11/12 02:59:27;;;;;;;1999.90;999.90;;;;;;;10.53;77.56;101862.22;15657270;28;20098;-59
2021/11/12 03:07:01;;;;;;;1999.90;999.90;;;;;;;10.56;77.26;101858.81;15678279;28;20091;-59
2021/11/12 03:14:35;;;;;;;1999.90;999.90;;;;;;;10.49;77.56;101851.97;15653530;28;20046;-59
2021/11/12 03:22:11;;;;;;;;;;;;;;;10.43;77.96;101844.81;15655201;28;20052;-59
2021/11/12 04:17:28;;;;;;;1999.90;999.90;;;;;;;10.41;77.78;101831.97;15638662;28;20036;-61
2021/11/12 04:41:16;;;;;;;1999.90;999.90;;;;;;;10.12;78.17;101832.16;15646964;28;20087;-61
2021/11/12 05:43:50;;;;;;;1999.90;999.90;;;;;;;10.02;77.34;101825.91;15652506;28;20033;-62
2021/11/12 05:51:29;;;;;;;1999.90;999.90;;;;;;;9.90;77.80;101819.94;15682488;28;20558;-62
2021/11/12 05:59:24;;;;;;;1999.90;999.90;;;;;;;9.88;77.63;101827.78;15684999;28;20045;-62
2021/11/12 06:06:57;;;;;;;1999.90;999.90;;;;;;;9.89;77.39;101827.47;15687246;28;20053;-63
2021/11/12 06:14:30;;;;;;;1999.90;999.90;;;;;;;9.97;77.41;101828.78;15681610;28;20037;-60
2021/11/12 06:22:03;;;;;;;1999.90;999.90;;;;;;;10.02;77.42;101825.91;15632274;28;20379;-61
2021/11/12 06:29:38;;;;;;;1999.90;999.90;;;;;;;10.02;77.34;101821.16;15659669;28;20423;-63
2021/11/12 06:37:11;;;;;;;1999.90;999.90;;;;;;;9.90;77.75;101820.81;15619066;28;20033;-60
2021/11/12 06:52:39;;;;;;;1999.90;999.90;;;;;;;9.78;77.44;101832.38;15685158;28;20045;-62
2021/11/12 07:00:16;;;;;;;1999.90;999.90;;;;;;;9.62;78.52;101835.69;15684958;28;20044;-61
2021/11/12 07:07:49;;;;;;;1999.90;999.90;;;;;;;9.58;78.87;101821.50;15623080;28;20068;-62
2021/11/12 07:15:22;;;;;;;1999.90;999.90;;;;;;;9.37;79.60;101817.34;15623446;28;20044;-65
2021/11/12 07:22:55;;;;;;;1999.90;999.90;;;;;;;9.07;80.08;101830.53;15662639;28;20049;-64
2021/11/12 07:30:31;;;;;;;1999.90;999.90;;;;;;;9.35;79.10;101828.78;15624315;22;20208;-62
2021/11/12 07:38:10;;;;;;;1999.90;999.90;;;;;;;9.67;78.31;101830.88;15605528;28;20033;-61
2021/11/12 07:45:55;;;;;;;1999.90;999.90;;;;;;;9.37;78.97;101817.34;15627398;28;20053;-62
2021/11/12 07:53:27;;;;;;;1999.90;999.90;;;;;;;9.61;77.85;101811.75;15614469;28;20378;-61
2021/11/12 08:01:01;;;;;;;1999.90;999.90;;;;;;;9.83;77.17;101814.75;15620530;28;20167;-61
2021/11/12 08:08:36;;;;;;;1999.90;999.90;;;;;;;10.04;76.38;101815.28;15624456;28;20490;-60
2021/11/12 08:16:24;;;;;;;1999.90;999.90;;;;;;;9.91;76.40;101796.53;15609920;28;20049;-61
2021/11/12 08:24:04;;;;;;;1999.90;999.90;;;;;;;9.75;77.98;101779.19;15609902;28;20538;-64
2021/11/12 08:31:45;;;;;;;1999.90;999.90;;;;;;;9.90;78.07;101772.53;15625410;28;20123;-60
2021/11/12 08:39:29;;;;;;;1999.90;999.90;;;;;;;9.74;78.63;101771.97;15616311;28;20112;-63
2021/11/12 08:47:08;;;;;;;1999.90;999.90;;;;;;;10.36;76.90;101778.25;15602346;28;20041;-63
2021/11/12 08:54:44;;;;;;;1999.90;999.90;;;;;;;9.97;77.77;101771.03;15609722;28;20041;-56
2021/11/12 09:02:23;;;;;;;1999.90;999.90;;;;;;;10.00;78.16;101773.22;15607860;28;20045;-59
2021/11/12 09:09:56;;;;;;;1999.90;999.90;;;;;;;10.08;78.28;101772.53;15607964;28;20409;-61
2021/11/12 09:17:31;;;;;;;1999.90;999.90;;;;;;;10.58;77.11;101772.81;15618481;28;20044;-60
2021/11/12 09:25:06;;;;;;;1999.90;999.90;;;;;;;10.40;76.66;101754.97;15601068;28;20069;-60
2021/11/12 09:32:40;;;;;;;1999.90;999.90;;;;;;;10.27;77.61;101743.81;15606299;28;20057;-63
2021/11/12 09:40:13;;;;;;;1999.90;999.90;;;;;;;10.53;76.36;101731.06;15608608;28;20045;-60
2021/11/12 09:47:48;;;;;;;1999.90;999.90;;;;;;;10.96;75.15;101714.81;15611863;28;20046;-62
2021/11/12 09:55:21;;;;;;;1999.90;999.90;;;;;;;10.38;76.74;101723.78;15607785;28;20091;-62
2021/11/12 10:02:57;;;;;;;1999.90;999.90;;;;;;;11.31;74.14;101711.56;15600518;28;20041;-63
2021/11/12 10:10:30;;;;;;;1999.90;999.90;;;;;;;10.81;76.08;101706.75;15606596;28;20045;-61
2021/11/12 10:18:10;;;;;;;1999.90;999.90;;;;;;;10.62;76.47;101692.06;15602726;28;20575;-60
2021/11/12 10:25:56;;;;;;;1999.90;999.90;;;;;;;10.55;76.66;101683.28;15616500;28;20033;-60
2021/11/12 10:33:37;;;;;;;1999.90;999.90;;;;;;;10.17;78.81;101671.44;15613758;28;20052;-60
2021/11/12 10:41:21;;;;;;;1999.90;999.90;;;;;;;10.27;78.01;101660.94;15618064;28;20087;-61
2021/11/12 10:48:55;;;;;;;1999.90;999.90;;;;;;;10.62;75.92;101651.03;15608731;28;20049;-59
2021/11/12 10:56:48;;;;;;;1999.90;999.90;;;;;;;10.69;76.18;101628.28;15612178;28;20110;-60
2021/11/12 11:04:23;;;;;;;;;;;;;;;11.12;74.72;101622.28;15621175;28;20044;-62
2021/11/12 11:11:55;;;;;;;1999.90;999.90;;;;;;;10.67;75.47;101631.38;15601182;28;19963;-62
2021/11/12 11:19:36;;;;;;;1999.90;999.90;;;;;;;10.68;76.08;101612.69;15616915;28;20103;-62
2021/11/12 11:27:08;;;;;;;1999.90;999.90;;;;;;;10.97;73.55;101588.00;15609516;28;20037;-65
2021/11/12 11:34:43;;;;;;;1999.90;999.90;;;;;;;11.42;72.86;101584.41;15608771;28;20160;-64
2021/11/12 11:42:15;;;;;;;1999.90;999.90;;;;;;;11.28;73.71;101587.28;15619032;28;20053;-63
2021/11/12 11:49:51;;;;;;;1999.90;999.90;;;;;;;11.25;74.06;101569.19;15603948;28;20049;-58
2021/11/12 11:57:27;;;;;;;1999.90;999.90;;;;;;;10.97;74.46;101582.44;15613012;28;20046;-58
2021/11/12 12:05:07;;;;;;;1999.90;999.90;;;;;;;10.68;75.99;101582.78;15611112;28;20087;-63
2021/11/12 12:12:53;;;;;;;1999.90;999.90;;;;;;;10.43;75.43;101563.81;15619051;28;20069;-62
2021/11/12 12:20:32;;;;;;;1999.90;999.90;;;;;;;10.38;74.40;101548.00;15597620;28;20474;-64
2021/11/12 13:32:02;;;;;;;1999.90;999.90;;;;;;;10.40;75.22;101450.84;15485085;28;20472;-60
2021/11/12 13:39:36;;;;;;;1999.90;999.90;;;;;;;10.57;74.38;101453.00;15505138;28;20052;-63
2021/11/12 13:47:12;;;;;;;1999.90;999.90;;;;;;;10.74;73.84;101443.13;15526328;28;20050;-64
2021/11/12 13:54:48;;;;;;;1999.90;999.90;;;;;;;10.33;74.02;101442.09;15499626;28;20045;-64
2021/11/12 14:02:21;;;;;;;1999.90;999.90;;;;;;;10.32;74.04;101450.81;15517452;28;20308;-63
2021/11/12 14:10:03;;;;;;;1999.90;999.90;;;;;;;10.65;73.20;101443.88;15524474;28;20125;-62
2021/11/12 14:18:09;;;;;;;1999.90;999.90;;;;;;;10.60;72.42;101432.81;15458050;28;20042;-62
2021/11/12 14:26:13;;;;;;;1999.90;999.90;;;;;;;10.36;73.14;101416.38;15494131;28;20408;-64
2021/11/12 14:34:04;;;;;;;1999.90;999.90;;;;;;;10.39;72.01;101417.69;15489149;28;20041;-64
2021/11/12 14:42:17;;;;;;;1999.90;999.90;;;;;;;10.22;73.28;101412.81;15501396;28;20475;-60
2021/11/12 14:50:00;;;;;;;;;;;;;;;10.39;72.58;101400.94;15549215;28;20046;-63
2021/11/12 14:57:37;;;;;;;1999.90;999.90;;;;;;;10.35;72.50;101400.78;15528749;28;20425;-62
2021/11/12 15:05:15;;;;;;;1999.90;999.90;;;;;;;10.22;72.92;101390.50;15475061;28;20473;-61
2021/11/12 15:12:57;;;;;;;1999.90;999.90;;;;;;;10.36;72.84;101391.25;15491518;28;20047;-64
2021/11/12 15:20:35;;;;;;;1999.90;999.90;;;;;;;10.32;72.84;101395.00;15495574;28;20057;-66
2021/11/12 15:28:22;;;;;;;1999.90;999.90;;;;;;;10.25;73.05;101383.44;15456417;28;20051;-63
2021/11/12 15:36:02;;;;;;;1999.90;999.90;;;;;;;10.16;73.11;101374.97;15476826;28;20430;-63
2021/11/12 15:43:51;;;;;;;1999.90;999.90;;;;;;;9.82;74.03;101367.91;15470672;28;20138;-63
2021/11/12 15:51:30;;;;;;;1999.90;999.90;;;;;;;9.65;75.28;101364.94;15458684;28;20178;-63
2021/11/12 15:59:09;;;;;;;1999.90;999.90;;;;;;;9.69;74.86;101373.50;15432890;28;20122;-63
2021/11/12 16:07:21;;;;;;;1999.90;999.90;;;;;;;9.61;75.00;101377.03;15487340;28;20376;-63
2021/11/12 16:15:12;;;;;;;1999.90;999.90;;;;;;;9.50;74.64;101373.63;15479414;28;20069;-62
2021/11/12 16:30:48;;;;;;;1999.90;999.90;;;;;;;9.19;75.22;101362.28;15477497;28;20052;-61
2021/11/12 16:38:30;;;;;;;1999.90;999.90;;;;;;;9.02;75.60;101354.50;15451939;28;20467;-64
2021/11/12 16:46:31;;;;;;;1999.90;999.90;;;;;;;9.34;73.89;101361.13;15465027;28;20038;-64
2021/11/12 16:54:15;;;;;;;1999.90;999.90;;;;;;;8.93;74.79;101357.16;15471334;28;20046;-64
2021/11/12 17:17:30;;;;;;;1999.90;999.90;;;;;;;7.67;80.28;101335.81;15548349;28;20068;-62
2021/11/12 17:48:46;;;;;;;1999.90;999.90;;;;;;;7.49;79.66;101323.53;15437896;28;20133;-62
2021/11/12 18:04:14;;;;;;;1999.90;999.90;;;;;;;7.30;80.34;101314.38;15522129;28;20133;-62
2021/11/12 21:49:27;;;;;;;1999.90;999.90;;;;;;;5.82;76.93;101129.31;15516986;28;20161;-60
2021/11/12 21:57:01;;;;;;;1999.90;999.90;;;;;;;5.53;78.60;101140.38;15493663;28;20435;-59
2021/11/12 22:04:36;;;;;;;1999.90;999.90;;;;;;;5.55;78.28;101127.06;15533955;28;20072;-59
2021/11/12 22:12:10;;;;;;;1999.90;999.90;;;;;;;5.29;78.11;101126.41;15514405;28;20447;-57
2021/11/12 22:19:44;;;;;;;1999.90;999.90;;;;;;;5.44;78.05;101129.09;15508035;28;20047;-60
2021/11/12 22:27:18;;;;;;;1999.90;999.90;;;;;;;5.21;79.41;101124.28;15514661;28;20085;-59
2021/11/12 22:34:53;;;;;;;1999.90;999.90;;;;;;;4.88;79.92;101109.25;15517954;28;20041;-60
2021/11/12 22:42:27;;;;;;;1999.90;999.90;;;;;;;4.60;81.21;101106.09;15520837;28;20129;-60
2021/11/12 22:50:02;;;;;;;1999.90;999.90;;;;;;;4.95;80.11;101097.88;15546657;28;20129;-61
2021/11/12 22:57:34;;;;;;;1999.90;999.90;;;;;;;4.89;79.71;101097.09;15522670;28;20042;-59
2021/11/12 23:05:08;;;;;;;1999.90;999.90;;;;;;;5.12;79.20;101095.56;15508537;28;20046;-61
2021/11/12 23:12:41;;;;;;;1999.90;999.90;;;;;;;5.06;78.69;101096.72;15536035;28;20108;-61
2021/11/12 23:20:15;;;;;;;1999.90;999.90;;;;;;;5.18;78.36;101095.22;15544445;28;20519;-63
2021/11/12 23:27:48;;;;;;;1999.90;999.90;;;;;;;4.82;80.12;101082.78;15536928;28;20491;-58
2021/11/12 23:35:25;;;;;;;1999.90;999.90;;;;;;;5.11;79.02;101071.78;15536917;28;20554;-62
2021/11/12 23:42:58;;;;;;;1999.90;999.90;;;;;;;4.63;80.92;101069.59;15537854;28;20518;-60
2021/11/12 23:50:32;;;;;;;1999.90;999.90;;;;;;;4.59;81.11;101068.53;15544963;28;20133;-59
2021/11/12 23:58:06;;;;;;;1999.90;999.90;;;;;;;4.86;80.38;101072.78;15516969;28;20046;-61
